Time;durP1;ratioP1;P1;durP2;ratioP2;P2;SDS_P1;SDS_P2;PMS_P1;PMS_P2;Temp;Humidity;BMP_temperature;BMP_pressure;BME280_temperature;BME280_humidity;BME280_pressure;Samples;Min_cycle;Max_cycle;Signal;HPM_P1;HPM_P2
2022/09/24 00:01:40;;;;;;;1.80;1.23;;;8.70;99.90;;;;;;5070572;28;20430;-75
2022/09/24 00:04:11;;;;;;;1.63;0.95;;;8.70;99.90;;;;;;5068518;28;20428;-75
2022/09/24 00:06:43;;;;;;;1.27;1.17;;;8.70;99.90;;;;;;5069995;28;20427;-75
2022/09/24 00:09:12;;;;;;;1.08;1.08;;;8.80;99.90;;;;;;5064123;28;20427;-75
2022/09/24 00:11:40;;;;;;;1.02;1.02;;;8.80;99.90;;;;;;5070058;28;20427;-75
2022/09/24 00:14:11;;;;;;;1.23;1.15;;;8.80;99.90;;;;;;5069529;28;20427;-75
2022/09/24 00:16:39;;;;;;;1.30;1.20;;;8.80;99.90;;;;;;5070073;28;20435;-75
2022/09/24 00:19:06;;;;;;;0.97;0.90;;;8.80;99.90;;;;;;5070200;28;20449;-75
2022/09/24 00:21:37;;;;;;;1.08;0.93;;;8.90;99.90;;;;;;5070266;28;20427;-75
2022/09/24 00:26:48;;;;;;;1.13;1.13;;;8.80;99.90;;;;;;5069511;28;20420;-75
2022/09/24 00:27:03;;;;;;;1.00;1.00;;;8.70;99.90;;;;;;5070157;28;20530;-75
2022/09/24 00:29:34;;;;;;;1.20;1.10;;;8.70;99.90;;;;;;5070423;28;20458;-75
2022/09/24 00:32:04;;;;;;;0.95;0.95;;;8.70;99.90;;;;;;5069598;28;20460;-75
2022/09/24 00:34:32;;;;;;;1.13;1.05;;;8.70;99.90;;;;;;5068974;28;20431;-75
2022/09/24 00:36:59;;;;;;;0.70;0.70;;;8.60;99.90;;;;;;5070453;28;20431;-75
2022/09/24 00:39:26;;;;;;;0.73;0.73;;;8.60;99.90;;;;;;5069831;28;20476;-75
2022/09/24 00:41:55;;;;;;;0.90;0.90;;;8.50;99.90;;;;;;5070053;28;20435;-75
2022/09/24 00:44:40;;;;;;;1.50;0.80;;;8.40;99.90;;;;;;5069644;28;20424;-75
2022/09/24 00:47:18;;;;;;;1.42;1.20;;;8.30;99.90;;;;;;5069869;28;20470;-75
2022/09/24 00:49:48;;;;;;;0.90;0.85;;;8.20;99.90;;;;;;5069891;28;20880;-75
2022/09/24 00:52:16;;;;;;;1.00;1.00;;;8.20;99.90;;;;;;5070022;28;20430;-75
2022/09/24 00:54:44;;;;;;;0.93;0.93;;;8.20;99.90;;;;;;5069763;28;20435;-75
2022/09/24 00:57:12;;;;;;;0.90;0.90;;;8.10;99.90;;;;;;5068234;28;20428;-75
2022/09/24 00:59:41;;;;;;;1.50;0.90;;;8.10;99.90;;;;;;5069584;28;20432;-75
2022/09/24 01:02:07;;;;;;;1.15;1.13;;;8.10;99.90;;;;;;5070052;28;20423;-75
2022/09/24 01:04:34;;;;;;;0.87;0.87;;;8.10;99.90;;;;;;5069160;28;20809;-75
2022/09/24 01:07:01;;;;;;;1.67;1.27;;;8.20;99.90;;;;;;5069780;28;20427;-75
2022/09/24 01:09:28;;;;;;;0.77;0.77;;;8.40;99.90;;;;;;5069633;28;20435;-75
2022/09/24 01:12:36;;;;;;;1.33;1.23;;;8.40;99.90;;;;;;5069734;28;20427;-75
2022/09/24 01:15:15;;;;;;;1.05;1.05;;;8.40;99.90;;;;;;5072031;28;20513;-75
2022/09/24 01:17:47;;;;;;;1.10;1.10;;;8.30;99.90;;;;;;5073661;28;20423;-75
2022/09/24 01:20:38;;;;;;;1.27;1.27;;;8.30;99.90;;;;;;5072109;28;21134;-75
2022/09/24 01:23:11;;;;;;;2.70;1.05;;;8.20;99.90;;;;;;5073086;28;20423;-76
2022/09/24 01:26:03;;;;;;;0.85;0.85;;;8.10;99.90;;;;;;5073668;28;20427;-76
2022/09/24 01:28:39;;;;;;;1.52;1.15;;;8.00;99.90;;;;;;5073562;28;20423;-75
2022/09/24 01:31:14;;;;;;;1.50;0.90;;;7.90;99.90;;;;;;5073072;28;20423;-75
2022/09/24 01:33:47;;;;;;;0.98;0.98;;;7.70;99.90;;;;;;5070952;28;20423;-75
2022/09/24 01:36:16;;;;;;;1.13;1.02;;;7.60;99.90;;;;;;5073169;28;20420;-75
2022/09/24 01:38:46;;;;;;;1.27;1.17;;;7.60;99.90;;;;;;5073284;28;21020;-75
2022/09/24 01:41:15;;;;;;;0.88;0.88;;;7.60;99.90;;;;;;5071781;28;20889;-75
2022/09/24 01:43:42;;;;;;;2.70;1.02;;;7.80;99.90;;;;;;5072839;28;20480;-75
2022/09/24 01:46:11;;;;;;;4.00;1.00;;;7.80;99.90;;;;;;5073054;28;21126;-75
2022/09/24 01:48:40;;;;;;;1.20;1.10;;;7.70;99.90;;;;;;5073266;28;20434;-75
2022/09/24 01:51:22;;;;;;;1.47;1.00;;;7.60;99.90;;;;;;5073185;28;20428;-75
2022/09/24 01:53:57;;;;;;;1.13;1.02;;;7.50;99.90;;;;;;5072763;28;20438;-75
2022/09/24 01:56:45;;;;;;;1.38;1.38;;;7.30;99.90;;;;;;5072642;28;20427;-75
2022/09/24 01:59:27;;;;;;;1.17;1.07;;;7.20;99.90;;;;;;5071644;28;20431;-75
2022/09/24 02:02:14;;;;;;;0.73;0.73;;;7.10;99.90;;;;;;5071404;28;20866;-75
2022/09/24 02:04:46;;;;;;;2.08;1.50;;;7.00;99.90;;;;;;5072122;28;20427;-75
2022/09/24 02:07:44;;;;;;;0.80;0.80;;;6.90;99.90;;;;;;5072714;28;20919;-75
2022/09/24 02:10:19;;;;;;;0.90;0.90;;;6.90;99.90;;;;;;5072412;28;20918;-75
2022/09/24 02:12:51;;;;;;;1.05;0.93;;;7.00;99.90;;;;;;5072423;28;20442;-75
2022/09/24 02:15:36;;;;;;;1.02;1.00;;;7.00;99.90;;;;;;5072154;28;20428;-75
2022/09/24 02:18:07;;;;;;;0.97;0.87;;;7.10;99.90;;;;;;5072394;28;20427;-75
2022/09/24 02:20:35;;;;;;;0.90;0.90;;;7.10;99.90;;;;;;5072404;28;20432;-75
2022/09/24 02:23:06;;;;;;;0.90;0.90;;;7.00;99.90;;;;;;5072079;28;20882;-75
2022/09/24 02:25:57;;;;;;;0.60;0.60;;;7.00;99.90;;;;;;5070872;28;20428;-75
2022/09/24 02:28:24;;;;;;;0.77;0.77;;;6.90;99.90;;;;;;5072724;28;20976;-75
2022/09/24 02:31:03;;;;;;;0.70;0.70;;;6.90;99.90;;;;;;5072314;28;20432;-75
2022/09/24 02:36:18;;;;;;;3.80;0.75;;;6.70;99.90;;;;;;5072867;28;20427;-75
2022/09/24 02:38:45;;;;;;;0.97;0.90;;;6.60;99.90;;;;;;5073606;28;20436;-75
2022/09/24 02:41:13;;;;;;;1.17;1.10;;;6.50;99.90;;;;;;5072159;28;20428;-75
2022/09/24 02:43:40;;;;;;;0.70;0.70;;;6.50;99.90;;;;;;5071638;28;20423;-75
2022/09/24 02:46:08;;;;;;;0.63;0.63;;;6.40;99.90;;;;;;5071796;28;20844;-75
2022/09/24 02:48:36;;;;;;;1.13;1.02;;;6.30;99.90;;;;;;5071696;28;20431;-75
2022/09/24 02:51:04;;;;;;;2.90;0.80;;;6.20;99.90;;;;;;5071731;28;20483;-75
2022/09/24 02:53:31;;;;;;;1.00;0.88;;;6.10;99.90;;;;;;5071243;28;20427;-75
2022/09/24 02:56:01;;;;;;;0.73;0.73;;;6.10;99.90;;;;;;5071455;28;20434;-75
2022/09/24 02:58:29;;;;;;;0.73;0.73;;;6.10;99.90;;;;;;5071628;28;20437;-74
2022/09/24 03:00:56;;;;;;;0.90;0.90;;;6.00;99.90;;;;;;5071750;28;20428;-75
2022/09/24 03:03:23;;;;;;;0.88;0.88;;;6.10;99.90;;;;;;5071230;28;20454;-75
2022/09/24 03:05:53;;;;;;;0.90;0.90;;;6.10;99.90;;;;;;5071497;28;20427;-75
2022/09/24 03:08:22;;;;;;;1.00;1.00;;;6.00;99.90;;;;;;5071575;28;20419;-75
2022/09/24 03:10:50;;;;;;;0.93;0.93;;;6.00;99.90;;;;;;5071436;28;20446;-75
2022/09/24 03:13:17;;;;;;;0.73;0.73;;;6.00;99.90;;;;;;5070688;28;20829;-75
2022/09/24 03:15:45;;;;;;;2.80;1.25;;;5.90;99.90;;;;;;5071275;28;20435;-74
2022/09/24 03:18:12;;;;;;;0.68;0.68;;;5.90;99.90;;;;;;5070385;28;20459;-75
2022/09/24 03:20:39;;;;;;;0.70;0.70;;;5.90;99.90;;;;;;5070031;28;20432;-75
2022/09/24 03:23:09;;;;;;;1.00;0.77;;;5.90;99.90;;;;;;5069671;28;20434;-74
2022/09/24 03:25:36;;;;;;;0.63;0.63;;;6.00;99.90;;;;;;5068617;28;20489;-75
2022/09/24 03:28:03;;;;;;;1.50;1.40;;;6.00;99.90;;;;;;5069849;28;20424;-75
2022/09/24 03:33:15;;;;;;;0.82;0.82;;;6.00;99.90;;;;;;5070566;28;20428;-74
2022/09/24 03:35:42;;;;;;;1.02;0.73;;;6.10;99.90;;;;;;5069579;28;20432;-75
2022/09/24 03:38:09;;;;;;;1.02;1.02;;;6.20;99.90;;;;;;5070700;28;20442;-74
2022/09/24 03:40:36;;;;;;;0.88;0.88;;;6.40;99.90;;;;;;5070284;28;20447;-75
2022/09/24 03:43:03;;;;;;;0.65;0.65;;;6.40;99.90;;;;;;5070439;28;20485;-75
2022/09/24 03:45:29;;;;;;;0.50;0.50;;;6.50;99.90;;;;;;5070961;28;20847;-75
2022/09/24 03:47:56;;;;;;;0.90;0.90;;;6.60;99.90;;;;;;5069498;28;20434;-75
2022/09/24 03:50:23;;;;;;;0.77;0.77;;;6.70;99.90;;;;;;5070630;28;20447;-75
2022/09/24 03:52:49;;;;;;;0.80;0.80;;;6.70;99.90;;;;;;5070184;28;21096;-75
2022/09/24 03:55:16;;;;;;;1.30;0.90;;;6.70;99.90;;;;;;5070106;28;20434;-75
2022/09/24 03:57:43;;;;;;;0.60;0.60;;;6.70;99.90;;;;;;5070409;28;20436;-74
2022/09/24 04:00:10;;;;;;;2.45;0.60;;;6.70;99.90;;;;;;5070387;28;20480;-74
2022/09/24 04:02:39;;;;;;;0.70;0.70;;;6.70;99.90;;;;;;5070513;28;20435;-74
2022/09/24 04:05:06;;;;;;;1.02;0.98;;;6.70;99.90;;;;;;5070063;28;20433;-74
2022/09/24 04:07:35;;;;;;;1.10;1.00;;;6.70;99.90;;;;;;5070301;28;20530;-75
2022/09/24 04:10:09;;;;;;;0.43;0.43;;;6.70;99.90;;;;;;5070285;28;20493;-75
2022/09/24 04:12:36;;;;;;;0.50;0.50;;;6.70;99.90;;;;;;5070237;28;20435;-74
2022/09/24 04:15:03;;;;;;;0.70;0.70;;;6.70;99.90;;;;;;5069838;28;20427;-75
2022/09/24 04:17:30;;;;;;;1.35;1.25;;;6.70;99.90;;;;;;5070006;28;20435;-75
2022/09/24 04:20:00;;;;;;;0.70;0.70;;;6.60;99.90;;;;;;5069911;28;20423;-75
2022/09/24 04:22:27;;;;;;;1.05;0.88;;;6.50;99.90;;;;;;5069975;28;20432;-75
2022/09/24 04:24:57;;;;;;;1.20;0.90;;;6.40;99.90;;;;;;5069630;28;20459;-75
2022/09/24 04:27:24;;;;;;;0.63;0.63;;;6.30;99.90;;;;;;5070148;28;20446;-75
2022/09/24 04:29:53;;;;;;;0.77;0.70;;;6.20;99.90;;;;;;5070165;28;20431;-75
2022/09/24 04:32:20;;;;;;;1.90;0.80;;;6.30;99.90;;;;;;5069487;28;20526;-74
2022/09/24 04:34:48;;;;;;;1.10;1.10;;;6.40;99.90;;;;;;5068117;28;20432;-75
2022/09/24 04:37:14;;;;;;;0.65;0.65;;;6.40;99.90;;;;;;5070015;28;20840;-75
2022/09/24 04:39:41;;;;;;;1.35;0.75;;;6.40;99.90;;;;;;5070085;28;20435;-75
2022/09/24 04:42:08;;;;;;;1.00;0.90;;;6.40;99.90;;;;;;5068598;28;20435;-75
2022/09/24 04:44:34;;;;;;;0.90;0.85;;;6.40;99.90;;;;;;5069611;28;20424;-75
2022/09/24 04:47:06;;;;;;;0.70;0.70;;;6.30;99.90;;;;;;5069743;28;20427;-75
2022/09/24 04:49:33;;;;;;;0.95;0.73;;;6.20;99.90;;;;;;5068033;28;20427;-75
2022/09/24 04:52:01;;;;;;;1.77;1.00;;;6.20;99.90;;;;;;5070038;28;20446;-74
2022/09/24 04:54:28;;;;;;;0.95;0.95;;;6.10;99.90;;;;;;5069349;28;20423;-74
2022/09/24 04:56:55;;;;;;;0.80;0.80;;;6.00;99.90;;;;;;5069808;28;20428;-75
2022/09/24 04:59:22;;;;;;;0.47;0.47;;;5.90;99.90;;;;;;5069965;28;20434;-75
2022/09/24 05:01:49;;;;;;;0.80;0.80;;;5.90;99.90;;;;;;5069391;28;21032;-74
2022/09/24 05:04:17;;;;;;;1.50;0.70;;;5.90;99.90;;;;;;5069677;28;20518;-74
2022/09/24 05:06:44;;;;;;;0.80;0.80;;;5.90;99.90;;;;;;5069494;28;20919;-75
2022/09/24 05:09:10;;;;;;;0.80;0.80;;;5.90;99.90;;;;;;5070059;28;20540;-75
2022/09/24 05:11:38;;;;;;;2.80;0.77;;;5.90;99.90;;;;;;5069687;28;20804;-75
2022/09/24 05:14:07;;;;;;;0.80;0.70;;;5.80;99.90;;;;;;5069207;28;20427;-75
2022/09/24 05:16:34;;;;;;;0.60;0.60;;;5.80;99.90;;;;;;5069385;28;20450;-75
2022/09/24 05:19:03;;;;;;;1.07;1.07;;;5.80;99.90;;;;;;5069673;28;20411;-75
2022/09/24 05:21:30;;;;;;;0.70;0.70;;;5.70;99.90;;;;;;5069667;28;20423;-75
2022/09/24 05:24:00;;;;;;;1.08;0.90;;;5.70;99.90;;;;;;5068504;28;20426;-74
2022/09/24 05:29:12;;;;;;;1.58;0.80;;;5.80;99.90;;;;;;5069044;28;20450;-74
2022/09/24 05:31:38;;;;;;;1.05;1.05;;;6.00;99.90;;;;;;5069399;28;20953;-74
2022/09/24 05:34:05;;;;;;;0.80;0.80;;;6.10;99.90;;;;;;5069035;28;20428;-75
2022/09/24 05:36:32;;;;;;;0.55;0.55;;;6.30;99.90;;;;;;5069389;28;20443;-74
2022/09/24 05:38:59;;;;;;;0.60;0.60;;;6.40;99.90;;;;;;5069293;28;20446;-75
2022/09/24 05:41:32;;;;;;;0.77;0.77;;;6.60;99.90;;;;;;5069010;28;20436;-75
2022/09/24 05:43:58;;;;;;;1.10;1.00;;;6.80;99.90;;;;;;5068641;28;20424;-75
2022/09/24 05:46:28;;;;;;;0.60;0.60;;;6.90;99.90;;;;;;5069404;28;20419;-75
2022/09/24 05:48:58;;;;;;;0.80;0.80;;;6.90;99.90;;;;;;5068682;28;20435;-75
2022/09/24 05:51:32;;;;;;;0.60;0.52;;;7.00;99.90;;;;;;5069174;28;20431;-76
2022/09/24 05:53:59;;;;;;;0.75;0.70;;;7.00;99.90;;;;;;5068468;28;20440;-75
2022/09/24 05:56:25;;;;;;;0.55;0.55;;;7.10;99.90;;;;;;5069544;28;20473;-75
2022/09/24 05:58:52;;;;;;;1.02;0.60;;;7.10;99.90;;;;;;5069428;28;20438;-76
2022/09/24 06:01:19;;;;;;;0.55;0.55;;;7.30;99.90;;;;;;5071613;28;20454;-76
2022/09/24 06:03:45;;;;;;;0.57;0.57;;;7.30;99.90;;;;;;5072508;28;20770;-76
2022/09/24 06:06:12;;;;;;;0.50;0.50;;;7.30;99.90;;;;;;5073111;28;20502;-76
2022/09/24 06:08:42;;;;;;;0.65;0.65;;;7.30;99.90;;;;;;5072619;28;20774;-76
2022/09/24 06:11:09;;;;;;;0.60;0.60;;;7.40;99.90;;;;;;5074145;28;20905;-76
2022/09/24 06:13:38;;;;;;;0.68;0.68;;;7.50;99.90;;;;;;5072786;28;20458;-76
2022/09/24 06:16:10;;;;;;;0.60;0.60;;;7.50;99.90;;;;;;5072806;28;20434;-77
2022/09/24 06:18:39;;;;;;;0.95;0.80;;;7.60;99.90;;;;;;5072620;28;20427;-76
2022/09/24 06:21:09;;;;;;;4.50;0.87;;;7.60;99.90;;;;;;5070984;28;20439;-76
2022/09/24 06:23:37;;;;;;;1.23;1.13;;;7.70;99.90;;;;;;5072192;28;20424;-76
2022/09/24 06:26:08;;;;;;;0.63;0.63;;;7.90;99.90;;;;;;5070196;28;20427;-77
2022/09/24 06:28:36;;;;;;;1.00;1.00;;;8.10;99.90;;;;;;5070999;28;20423;-76
2022/09/24 06:31:03;;;;;;;0.70;0.60;;;8.30;99.90;;;;;;5072840;28;20812;-77
2022/09/24 06:33:31;;;;;;;1.00;1.00;;;8.50;99.90;;;;;;5071814;28;20427;-76
2022/09/24 06:36:03;;;;;;;1.00;1.00;;;8.70;99.90;;;;;;5072785;28;20430;-77
2022/09/24 06:38:30;;;;;;;1.23;1.17;;;8.90;99.90;;;;;;5072631;28;20465;-76
2022/09/24 06:41:02;;;;;;;1.17;1.08;;;9.10;99.90;;;;;;5071644;28;20437;-77
2022/09/24 06:43:32;;;;;;;1.30;0.70;;;9.40;99.90;;;;;;5071941;28;20435;-77
2022/09/24 06:46:00;;;;;;;1.27;1.20;;;9.70;99.90;;;;;;5071942;28;20431;-78
2022/09/24 06:48:28;;;;;;;3.45;1.00;;;9.90;99.90;;;;;;5072408;28;20432;-77
2022/09/24 06:51:03;;;;;;;2.42;1.58;;;10.30;99.90;;;;;;5071620;28;20435;-77
2022/09/24 06:53:30;;;;;;;2.22;2.03;;;10.70;99.90;;;;;;5071826;28;20436;-76
2022/09/24 06:56:02;;;;;;;1.10;1.10;;;11.40;99.90;;;;;;5070992;28;20988;-76
2022/09/24 06:58:29;;;;;;;1.63;1.55;;;11.80;99.90;;;;;;5071968;28;20427;-76
2022/09/24 07:01:02;;;;;;;1.73;1.35;;;11.80;99.90;;;;;;5072130;28;20435;-75
2022/09/24 07:03:33;;;;;;;1.75;1.65;;;11.70;99.90;;;;;;5072052;28;20509;-76
2022/09/24 07:06:02;;;;;;;2.75;1.70;;;11.50;99.90;;;;;;5072094;28;20424;-77
2022/09/24 07:08:30;;;;;;;1.92;1.63;;;11.50;99.90;;;;;;5072191;28;20415;-77
2022/09/24 07:10:59;;;;;;;3.33;2.00;;;11.50;99.90;;;;;;5070354;28;20536;-77
2022/09/24 07:13:27;;;;;;;2.40;1.30;;;11.60;99.90;;;;;;5071984;28;20941;-77
2022/09/24 07:15:53;;;;;;;2.47;1.80;;;11.70;99.90;;;;;;5072557;28;20431;-77
2022/09/24 07:18:32;;;;;;;3.35;2.55;;;11.80;99.90;;;;;;5072521;28;20438;-77
2022/09/24 07:20:58;;;;;;;3.28;2.53;;;11.90;99.90;;;;;;5072418;28;20428;-77
2022/09/24 07:23:26;;;;;;;2.13;1.92;;;12.10;99.90;;;;;;5072019;28;20423;-77
2022/09/24 07:25:56;;;;;;;2.00;1.90;;;12.40;99.90;;;;;;5072216;28;20481;-77
2022/09/24 07:28:34;;;;;;;1.60;1.50;;;12.70;99.90;;;;;;5072015;28;20477;-78
2022/09/24 07:31:00;;;;;;;2.10;2.00;;;13.10;99.90;;;;;;5072357;28;20771;-78
2022/09/24 07:33:30;;;;;;;1.85;1.75;;;13.70;99.90;;;;;;5072159;28;20427;-78
2022/09/24 07:35:57;;;;;;;1.73;1.63;;;14.40;99.90;;;;;;5071113;28;20928;-79
2022/09/24 07:38:24;;;;;;;2.10;2.00;;;14.80;99.90;;;;;;5072366;28;20443;-78
2022/09/24 07:40:53;;;;;;;1.95;1.85;;;15.10;99.90;;;;;;5072500;28;20547;-78
2022/09/24 07:43:20;;;;;;;1.55;1.42;;;15.10;99.90;;;;;;5072204;28;20431;-77
2022/09/24 07:45:47;;;;;;;2.35;2.05;;;15.00;99.90;;;;;;5070944;28;20428;-78
2022/09/24 07:48:14;;;;;;;2.30;2.20;;;14.90;99.90;;;;;;5072163;28;20427;-79
2022/09/24 07:50:41;;;;;;;3.38;2.80;;;14.90;99.90;;;;;;5072192;28;20498;-79
2022/09/24 07:53:11;;;;;;;2.90;2.20;;;14.20;99.90;;;;;;5071583;28;20489;-77
2022/09/24 07:55:39;;;;;;;1.48;1.38;;;14.30;99.90;;;;;;5071712;28;21136;-77
2022/09/24 07:58:13;;;;;;;2.05;1.95;;;13.90;99.90;;;;;;5072095;28;20428;-77
2022/09/24 08:00:41;;;;;;;2.45;2.15;;;14.10;99.90;;;;;;5071984;28;20937;-78
2022/09/24 08:03:08;;;;;;;2.00;1.80;;;13.90;99.90;;;;;;5070240;28;20431;-77
2022/09/24 08:05:44;;;;;;;6.00;4.28;;;13.70;99.90;;;;;;5072037;28;20473;-78
2022/09/24 08:08:14;;;;;;;2.45;2.03;;;13.70;99.90;;;;;;5071837;28;20419;-77
2022/09/24 08:10:41;;;;;;;2.13;1.80;;;13.80;99.90;;;;;;5071398;28;20427;-78
2022/09/24 08:13:08;;;;;;;3.90;2.10;;;13.80;99.90;;;;;;5071528;28;20989;-77
2022/09/24 08:15:35;;;;;;;2.30;2.10;;;13.80;99.90;;;;;;5070812;28;20422;-77
2022/09/24 08:18:03;;;;;;;1.90;1.80;;;14.00;99.90;;;;;;5070367;28;20825;-77
2022/09/24 08:20:36;;;;;;;2.17;1.77;;;14.20;99.90;;;;;;5071538;28;20426;-77
2022/09/24 08:23:06;;;;;;;2.88;2.67;;;14.60;99.90;;;;;;5069949;28;20960;-77
2022/09/24 08:25:33;;;;;;;2.00;1.90;;;14.90;99.90;;;;;;5070377;28;20922;-77
2022/09/24 08:28:15;;;;;;;2.42;2.25;;;15.20;99.90;;;;;;5071385;28;20431;-78
2022/09/24 08:30:43;;;;;;;1.80;1.70;;;15.30;99.90;;;;;;5071555;28;20430;-77
2022/09/24 08:33:10;;;;;;;2.92;2.63;;;15.50;99.90;;;;;;5071165;28;20906;-78
2022/09/24 08:35:40;;;;;;;1.90;1.80;;;15.60;99.90;;;;;;5071583;28;20427;-77
2022/09/24 08:38:09;;;;;;;2.15;2.05;;;15.20;99.90;;;;;;5071139;28;20427;-77
2022/09/24 08:40:45;;;;;;;2.53;2.33;;;14.80;99.90;;;;;;5070657;28;20552;-77
2022/09/24 08:43:14;;;;;;;2.15;2.05;;;14.50;99.90;;;;;;5070518;28;20798;-78
2022/09/24 08:48:41;;;;;;;2.35;2.17;;;15.00;99.90;;;;;;5070855;28;20424;-78
2022/09/24 08:51:16;;;;;;;2.78;2.58;;;15.40;99.90;;;;;;5070829;28;20860;-78
2022/09/24 08:53:47;;;;;;;2.25;2.15;;;15.70;99.90;;;;;;5070295;28;20436;-78
2022/09/24 08:56:19;;;;;;;2.47;2.28;;;15.90;99.90;;;;;;5052798;28;20452;-77
2022/09/24 08:59:29;;;;;;;2.22;2.10;;;15.90;99.90;;;;;;5068375;28;20428;-77
2022/09/24 09:02:17;;;;;;;2.30;2.20;;;15.60;99.90;;;;;;5049996;28;20429;-77
2022/09/24 09:04:56;;;;;;;2.83;2.63;;;15.60;99.90;;;;;;5050868;28;20425;-77
2022/09/24 09:07:31;;;;;;;2.83;2.60;;;15.60;99.90;;;;;;5050711;28;20429;-77
2022/09/24 09:10:03;;;;;;;2.83;2.45;;;15.90;99.90;;;;;;5050489;28;21035;-77
2022/09/24 09:12:52;;;;;;;2.50;2.30;;;16.20;99.90;;;;;;5050300;28;20430;-78
2022/09/24 09:15:24;;;;;;;3.20;2.70;;;16.50;99.90;;;;;;5050139;28;20444;-78
2022/09/24 09:18:09;;;;;;;3.60;2.35;;;16.80;99.90;;;;;;5066291;28;20459;-78
2022/09/24 09:20:41;;;;;;;3.15;2.38;;;17.40;99.90;;;;;;5070863;28;20434;-78
2022/09/24 09:23:29;;;;;;;2.80;2.50;;;16.90;99.90;;;;;;5070181;28;20434;-77
2022/09/24 09:25:58;;;;;;;2.50;2.30;;;17.00;99.90;;;;;;5070259;28;20424;-77
2022/09/24 09:28:26;;;;;;;2.28;2.10;;;17.10;99.90;;;;;;5068852;28;20509;-77
2022/09/24 09:31:11;;;;;;;2.38;2.28;;;17.20;99.90;;;;;;5071052;28;20510;-77
2022/09/24 09:34:16;;;;;;;2.90;2.70;;;16.80;99.90;;;;;;5070764;28;20804;-77
2022/09/24 09:36:59;;;;;;;2.70;2.50;;;17.00;99.90;;;;;;5075715;28;20427;-78
2022/09/24 09:39:58;;;;;;;2.20;2.10;;;17.20;99.90;;;;;;5075170;28;20423;-78
2022/09/24 09:42:30;;;;;;;2.80;2.60;;;17.90;99.90;;;;;;5048103;28;20431;-78
2022/09/24 09:45:21;;;;;;;3.00;2.75;;;18.20;99.90;;;;;;5073829;28;20522;-77
2022/09/24 09:47:55;;;;;;;3.03;2.83;;;18.40;99.90;;;;;;5065578;28;20442;-78
2022/09/24 09:50:38;;;;;;;3.08;2.85;;;18.20;99.90;;;;;;5072442;28;20435;-78
2022/09/24 09:53:05;;;;;;;2.88;2.65;;;18.00;99.90;;;;;;5073226;28;20423;-77
2022/09/24 09:55:36;;;;;;;3.58;2.72;;;18.30;99.90;;;;;;5071777;28;20427;-77
2022/09/24 09:58:24;;;;;;;2.88;2.67;;;18.90;99.90;;;;;;5073820;28;20424;-78
2022/09/24 10:00:52;;;;;;;3.55;2.70;;;19.50;99.90;;;;;;5073284;28;20427;-77
2022/09/24 10:03:31;;;;;;;2.67;2.55;;;20.30;99.90;;;;;;5073035;28;20777;-77
2022/09/24 10:06:04;;;;;;;3.20;2.85;;;20.40;99.90;;;;;;5073237;28;20423;-78
2022/09/24 10:08:31;;;;;;;2.73;2.53;;;20.30;99.90;;;;;;5073412;28;20765;-76
2022/09/24 10:11:00;;;;;;;2.92;2.72;;;19.50;99.90;;;;;;5073145;28;20430;-76
2022/09/24 10:13:30;;;;;;;2.90;2.70;;;19.50;99.90;;;;;;5071662;28;20439;-76
2022/09/24 10:15:59;;;;;;;3.35;2.85;;;19.50;99.90;;;;;;5072647;28;21083;-77
2022/09/24 10:18:33;;;;;;;2.33;2.13;;;19.30;99.90;;;;;;5072563;28;20450;-77
2022/09/24 10:21:08;;;;;;;2.83;2.63;;;19.50;99.90;;;;;;5072267;28;20423;-76
2022/09/24 10:23:43;;;;;;;3.05;2.85;;;19.80;99.90;;;;;;5072159;28;20436;-77
2022/09/24 10:26:10;;;;;;;4.00;2.73;;;20.20;99.90;;;;;;5072347;28;20435;-77
2022/09/24 10:31:37;;;;;;;2.88;2.63;;;20.50;99.90;;;;;;5071401;28;20439;-76
2022/09/24 10:34:23;;;;;;;3.00;2.67;;;19.80;99.90;;;;;;5070745;28;20431;-76
2022/09/24 10:36:52;;;;;;;2.58;2.38;;;20.00;99.90;;;;;;5071233;28;20778;-76
2022/09/24 10:39:33;;;;;;;2.60;2.40;;;19.70;99.90;;;;;;5070365;28;20436;-76
2022/09/24 10:42:02;;;;;;;2.72;2.53;;;19.80;99.90;;;;;;5072314;28;20526;-76
2022/09/24 10:44:35;;;;;;;2.88;2.60;;;20.20;99.90;;;;;;5071753;28;20445;-77
2022/09/24 10:47:03;;;;;;;2.47;2.30;;;20.60;99.90;;;;;;5071448;28;20424;-76
2022/09/24 10:49:42;;;;;;;2.43;2.33;;;20.80;99.90;;;;;;5072186;28;20432;-77
2022/09/24 10:52:38;;;;;;;2.53;2.35;;;20.80;99.90;;;;;;5072105;28;20794;-75
2022/09/24 10:55:23;;;;;;;2.20;2.00;;;20.90;99.90;;;;;;5070778;28;20427;-76
2022/09/24 10:58:45;;;;;;;1.80;1.70;;;20.70;99.90;;;;;;5072062;28;20520;-77
2022/09/24 11:01:34;;;;;;;3.08;1.88;;;20.60;99.90;;;;;;4989967;28;20438;-76
2022/09/24 11:04:19;;;;;;;1.80;1.47;;;20.30;99.90;;;;;;4989667;28;20450;-76
2022/09/24 11:07:17;;;;;;;1.63;1.60;;;20.50;99.90;;;;;;4989925;28;20569;-77
2022/09/24 11:10:13;;;;;;;1.90;1.80;;;20.70;99.90;;;;;;4989746;28;20434;-76
2022/09/24 11:13:06;;;;;;;1.52;1.52;;;20.90;99.90;;;;;;4912642;29;20929;-76
2022/09/24 11:16:05;;;;;;;1.60;1.50;;;21.60;99.90;;;;;;4912569;29;20493;-77
2022/09/24 11:19:04;;;;;;;1.30;1.23;;;22.50;99.90;;;;;;4912707;29;20449;-76
2022/09/24 11:22:02;;;;;;;1.20;1.20;;;22.40;99.90;;;;;;4912881;29;20443;-76
2022/09/24 11:24:43;;;;;;;1.00;1.00;;;23.00;99.90;;;;;;4912140;29;20447;-73
2022/09/24 11:27:18;;;;;;;1.00;1.00;;;23.20;99.90;;;;;;4912453;29;20849;-75
2022/09/24 11:30:13;;;;;;;0.98;0.98;;;23.70;99.90;;;;;;4912574;29;20485;-73
2022/09/24 11:32:45;;;;;;;1.47;1.37;;;23.60;99.90;;;;;;4912274;29;20452;-74
2022/09/24 11:35:49;;;;;;;2.40;1.20;;;23.30;99.90;;;;;;4911861;29;20476;-74
2022/09/24 11:38:27;;;;;;;1.48;1.25;;;23.10;99.90;;;;;;4988807;28;20461;-73
2022/09/24 11:41:04;;;;;;;1.25;1.25;;;22.90;99.90;;;;;;4987508;28;20434;-74
2022/09/24 11:44:10;;;;;;;1.83;1.48;;;22.40;99.90;;;;;;4988557;28;20921;-73
2022/09/24 11:46:53;;;;;;;1.52;1.42;;;22.20;99.90;;;;;;4989045;28;20457;-74
2022/09/24 11:49:35;;;;;;;2.20;2.00;;;21.60;99.90;;;;;;5023486;28;21052;-74
2022/09/24 11:52:36;;;;;;;1.70;1.60;;;21.50;99.90;;;;;;5050612;28;20429;-76
2022/09/24 11:55:10;;;;;;;1.45;1.35;;;22.40;99.90;;;;;;5050133;28;20444;-77
2022/09/24 11:57:43;;;;;;;1.40;1.30;;;22.50;99.90;;;;;;5051468;28;20437;-76
2022/09/24 12:00:16;;;;;;;1.60;1.50;;;22.90;99.90;;;;;;5069182;28;20492;-76
2022/09/24 12:02:50;;;;;;;1.50;1.40;;;22.80;99.90;;;;;;5070259;28;20430;-76
2022/09/24 12:05:38;;;;;;;1.23;1.23;;;22.40;99.90;;;;;;5070493;28;20862;-76
2022/09/24 12:08:26;;;;;;;1.13;1.10;;;22.50;99.90;;;;;;5070909;28;20454;-81
2022/09/24 12:11:04;;;;;;;1.20;1.07;;;21.50;99.90;;;;;;5070529;28;20798;-76
2022/09/24 12:13:44;;;;;;;1.08;1.08;;;21.40;99.90;;;;;;5070743;28;20428;-76
2022/09/24 12:16:14;;;;;;;1.05;1.05;;;21.50;99.90;;;;;;5070977;28;20434;-77
2022/09/24 12:18:51;;;;;;;0.75;0.75;;;21.70;99.90;;;;;;5070871;28;20423;-76
2022/09/24 12:21:38;;;;;;;0.98;0.98;;;22.00;99.90;;;;;;5071221;28;20426;-76
2022/09/24 12:24:15;;;;;;;1.15;1.15;;;21.90;99.90;;;;;;5070224;28;20435;-75
2022/09/24 12:26:46;;;;;;;1.30;1.30;;;21.80;99.90;;;;;;5070794;28;20427;-76
2022/09/24 12:32:54;;;;;;;1.00;0.90;;;21.50;99.90;;;;;;5069759;28;20455;-76
2022/09/24 12:35:52;;;;;;;1.00;1.00;;;21.40;99.90;;;;;;5069554;28;20423;-76
2022/09/24 12:38:34;;;;;;;1.48;1.30;;;21.10;99.90;;;;;;5069200;28;20963;-74
2022/09/24 12:41:20;;;;;;;1.13;1.13;;;20.80;99.90;;;;;;5069708;28;20516;-74
2022/09/24 12:44:10;;;;;;;1.10;1.10;;;20.80;99.90;;;;;;5069306;28;20495;-75
2022/09/24 12:46:52;;;;;;;1.60;1.55;;;20.90;99.90;;;;;;5069070;28;20427;-75
2022/09/24 12:49:24;;;;;;;1.15;1.15;;;21.20;99.90;;;;;;5069969;28;20510;-75
2022/09/24 12:51:53;;;;;;;1.48;1.48;;;21.60;99.90;;;;;;5069861;28;20435;-74
2022/09/24 12:54:27;;;;;;;0.80;0.80;;;21.80;99.90;;;;;;5069401;28;20893;-74
2022/09/24 12:57:33;;;;;;;0.97;0.97;;;22.00;99.90;;;;;;5069637;28;20442;-75
2022/09/24 13:00:03;;;;;;;1.10;1.10;;;22.30;99.90;;;;;;5071402;28;20435;-75
2022/09/24 13:02:48;;;;;;;1.27;1.17;;;22.40;99.90;;;;;;5071182;28;20435;-75
2022/09/24 13:05:26;;;;;;;1.85;1.17;;;22.00;99.90;;;;;;5073967;28;20504;-75
2022/09/24 13:08:03;;;;;;;0.98;0.98;;;22.10;99.90;;;;;;5068745;28;21098;-75
2022/09/24 13:10:32;;;;;;;1.67;1.50;;;21.80;99.90;;;;;;5071539;28;20432;-75
2022/09/24 13:12:59;;;;;;;1.02;1.02;;;21.60;99.90;;;;;;5073401;28;20435;-74
2022/09/24 13:15:34;;;;;;;1.13;1.13;;;21.30;99.90;;;;;;5073776;28;20427;-74
2022/09/24 13:18:10;;;;;;;2.38;1.38;;;21.10;99.90;;;;;;5073055;28;20462;-73
2022/09/24 13:20:41;;;;;;;1.15;1.15;;;20.80;99.90;;;;;;5073646;28;20897;-75
2022/09/24 13:23:18;;;;;;;1.38;1.38;;;20.60;99.90;;;;;;5073037;28;20432;-75
2022/09/24 13:26:03;;;;;;;1.40;1.40;;;20.80;99.90;;;;;;5073045;28;20423;-75
2022/09/24 13:28:56;;;;;;;1.50;1.40;;;21.00;99.90;;;;;;5072534;28;20427;-75
2022/09/24 13:31:46;;;;;;;1.60;1.50;;;20.70;99.90;;;;;;5073457;28;20882;-74
2022/09/24 13:34:23;;;;;;;1.50;1.40;;;20.80;99.90;;;;;;5072753;28;20431;-76
2022/09/24 13:37:02;;;;;;;1.33;1.33;;;20.90;99.90;;;;;;5071934;28;20442;-76
2022/09/24 13:39:34;;;;;;;1.95;1.60;;;20.90;99.90;;;;;;5073227;28;20427;-76
2022/09/24 13:42:16;;;;;;;1.65;1.48;;;20.80;99.90;;;;;;5073319;28;20492;-75
2022/09/24 13:45:06;;;;;;;1.20;1.20;;;20.80;99.90;;;;;;5072847;28;20419;-74